Agate Beach, Oregon
Current Conditions -  °F | °C
As of 4:35 AM on Monday 20 Oct 2014 (Local Time) from KONP Reporting Station
Scattered Clouds Scattered Clouds  
Wind Chill: 55°   Ceiling: Unl
Heat Index: 55°   Visibility: 10mi
Dew Point: 54°   Wind: 6mph
Humidity: 94%   Direction: 180°S
Pressure: 29.77"   Gusts: NA
Location:  44.6805°N, 124.021°W
Report Text: KONP 201135Z AUTO 18005KT 10SM SCT018 13/12 A2977 RMK AO2
Loading
Personal Weather Stations






























Interactive Weather Map New forecast layout! Learn more

10-Day Weather Forecast

Advertisements
Track Severe Weather on mobile